Time;durP1;ratioP1;P1;durP2;ratioP2;P2;SDS_P1;SDS_P2;PMS_P1;PMS_P2;Temp;Humidity;BMP_temperature;BMP_pressure;BME280_temperature;BME280_humidity;BME280_pressure;Samples;Min_cycle;Max_cycle;Signal;HPM_P1;HPM_P2
2022/04/28 00:01:11;;;;;;;10.67;8.20;;;;;;;10.65;76.22;100629.02;1404424;84;23726;31
2022/04/28 00:03:39;;;;;;;13.17;8.10;;;;;;;10.65;76.31;100636.96;1394914;85;24281;31
2022/04/28 00:06:06;;;;;;;10.63;7.20;;;;;;;10.63;75.76;100638.91;1408185;85;21627;-88
2022/04/28 00:08:32;;;;;;;12.43;8.33;;;;;;;10.65;75.27;100639.61;1384085;89;21369;-92
2022/04/28 00:10:58;;;;;;;11.73;9.47;;;;;;;10.66;75.36;100638.62;1376347;89;21356;-93
2022/04/28 00:13:26;;;;;;;12.83;8.70;;;;;;;10.71;75.80;100638.20;1378240;89;21409;-93
2022/04/28 00:15:53;;;;;;;11.50;8.27;;;;;;;10.69;75.96;100634.36;1390280;88;21297;-90
2022/04/28 00:18:19;;;;;;;10.33;7.27;;;;;;;10.70;75.86;100633.87;1374362;90;22833;-92
2022/04/28 00:20:45;;;;;;;11.23;8.90;;;;;;;10.69;75.32;100630.89;1373123;90;21334;-93
2022/04/28 00:23:11;;;;;;;11.87;8.70;;;;;;;10.66;75.83;100632.00;1386431;89;21223;-93
2022/04/28 00:25:38;;;;;;;12.57;9.30;;;;;;;10.70;75.91;100636.02;1411863;84;21857;-88
2022/04/28 00:28:04;;;;;;;13.67;8.47;;;;;;;10.71;76.23;100634.23;1387027;86;21797;-89
2022/04/28 00:30:33;;;;;;;13.80;8.67;;;;;;;10.65;76.37;100632.16;1407497;84;21721;31
2022/04/28 00:33:07;;;;;;;12.03;9.27;;;;;;;10.63;77.40;100633.62;1398276;86;21774;-90
2022/04/28 00:35:38;;;;;;;12.93;8.60;;;;;;;10.57;78.15;100628.90;1352218;87;21633;31
2022/04/28 00:38:04;;;;;;;;;;;;;;;10.53;77.90;100634.11;1377433;85;21547;-90
2022/04/28 00:40:31;;;;;;;11.13;8.50;;;;;;;10.49;79.38;100636.70;1376082;90;20241;-91
2022/04/28 00:43:18;;;;;;;13.13;8.67;;;;;;;10.43;79.83;100637.28;1370153;86;21958;-92
2022/04/28 00:45:26;;;;;;;12.70;8.83;;;;;;;10.35;79.23;100632.19;1387822;87;22380;-90
2022/04/28 00:50:44;;;;;;;10.43;8.50;;;;;;;10.32;81.18;100625.03;1395417;84;21707;31
2022/04/28 00:58:54;;;;;;;10.00;7.47;;;;;;;10.18;81.05;100610.39;1414386;85;22366;-89
2022/04/28 01:01:21;;;;;;;15.13;8.37;;;;;;;10.14;80.97;100605.88;1353430;91;21283;-90
2022/04/28 01:03:48;;;;;;;10.93;7.73;;;;;;;10.16;82.53;100600.45;1351845;91;22168;-89
2022/04/28 01:06:14;;;;;;;11.43;8.67;;;;;;;10.15;81.75;100601.41;1353218;92;21259;-89
2022/04/28 01:08:41;;;;;;;22.83;8.77;;;;;;;10.14;82.82;100602.40;1334811;92;21384;-89
2022/04/28 01:11:08;;;;;;;14.73;8.47;;;;;;;10.11;82.73;100606.65;1337633;93;21345;-88
2022/04/28 01:13:34;;;;;;;11.47;9.00;;;;;;;10.08;85.32;100602.97;1345298;92;21296;-90
2022/04/28 01:16:01;;;;;;;13.47;9.33;;;;;;;10.07;84.51;100610.53;1348935;92;21333;-91
2022/04/28 01:18:27;;;;;;;13.47;10.33;;;;;;;10.01;84.96;100603.16;1359757;91;21230;-92
2022/04/28 01:20:54;;;;;;;14.57;10.17;;;;;;;10.01;84.26;100598.73;1345478;92;21353;-89
2022/04/28 01:23:20;;;;;;;9.37;8.37;;;;;;;9.99;84.76;100609.09;1345008;92;21511;-90
2022/04/28 01:28:14;;;;;;;12.30;7.93;;;;;;;9.98;85.82;100614.02;1380124;85;21703;-90
2022/04/28 01:30:41;;;;;;;14.60;9.67;;;;;;;9.95;84.26;100619.09;1385665;85;21514;31
2022/04/28 01:33:08;;;;;;;9.47;6.90;;;;;;;9.99;85.27;100616.53;1390530;86;21618;-87
2022/04/28 01:38:05;;;;;;;13.07;9.37;;;;;;;9.96;84.78;100623.92;1402685;86;21752;31
2022/04/28 01:40:52;;;;;;;11.08;8.38;;;;;;;9.97;84.78;100617.64;1395227;86;21509;-88
2022/04/28 01:43:20;;;;;;;11.80;8.30;;;;;;;9.94;85.06;100619.58;1384792;85;21771;31
2022/04/28 01:48:23;;;;;;;11.33;8.50;;;;;;;9.94;85.52;100616.94;1420291;85;23013;31
2022/04/28 01:56:13;;;;;;;12.43;9.07;;;;;;;9.92;84.44;100611.44;1408494;86;20241;-90
2022/04/28 01:58:40;;;;;;;13.33;8.63;;;;;;;9.94;84.09;100608.17;1407607;88;22270;-90
2022/04/28 02:01:07;;;;;;;13.97;8.93;;;;;;;9.95;84.22;100616.45;1392240;89;22219;-91
2022/04/28 02:06:03;;;;;;;11.63;8.93;;;;;;;10.01;83.49;100608.45;1415487;83;21625;31
2022/04/28 02:08:30;;;;;;;15.03;9.07;;;;;;;10.01;84.22;100611.09;1368920;91;22258;-90
2022/04/28 02:10:56;;;;;;;13.20;8.40;;;;;;;9.98;84.07;100617.98;1366407;90;21265;-89
2022/04/28 02:13:22;;;;;;;10.70;8.13;;;;;;;10.01;84.23;100608.45;1364334;91;21243;-90
2022/04/28 02:15:48;;;;;;;13.33;8.73;;;;;;;9.97;83.65;100613.68;1378375;89;21243;-92
2022/04/28 02:18:15;;;;;;;14.60;8.17;;;;;;;10.01;84.48;100611.09;1364738;90;21339;-91
2022/04/28 02:20:41;;;;;;;14.13;9.73;;;;;;;10.00;84.30;100608.11;1364556;91;21213;-91
2022/04/28 02:23:07;;;;;;;13.33;9.60;;;;;;;9.98;84.21;100614.02;1352684;91;21332;-92
2022/04/28 02:25:34;;;;;;;11.90;9.10;;;;;;;10.02;83.39;100608.33;1366161;91;21287;-92
2022/04/28 02:28:06;;;;;;;10.67;8.10;;;;;;;10.06;84.13;100608.88;1368285;91;21310;-90
2022/04/28 02:30:32;;;;;;;14.40;9.57;;;;;;;10.08;84.14;100609.08;1365058;91;21237;-91
2022/04/28 02:33:11;;;;;;;12.00;8.53;;;;;;;10.09;83.13;100605.95;1366315;91;22201;-91
2022/04/28 02:35:40;;;;;;;15.30;9.53;;;;;;;10.07;84.28;100609.20;1368607;90;22274;-91
2022/04/28 02:38:07;;;;;;;12.60;9.83;;;;;;;9.94;84.10;100606.36;1368264;90;21419;-90
2022/04/28 02:40:33;;;;;;;10.87;8.93;;;;;;;9.96;84.61;100602.77;1351621;92;21499;-90
2022/04/28 02:43:00;;;;;;;12.87;8.33;;;;;;;10.00;83.64;100598.36;1368736;90;22194;-90
2022/04/28 02:45:27;;;;;;;12.00;8.20;;;;;;;9.97;83.41;100599.14;1369778;90;21285;-91
2022/04/28 02:47:53;;;;;;;13.57;9.07;;;;;;;9.92;83.55;100596.41;1369111;90;21244;-90
2022/04/28 02:52:50;;;;;;;13.30;8.20;;;;;;;9.89;83.99;100594.05;1406571;83;21655;31
2022/04/28 02:55:23;;;;;;;9.83;7.73;;;;;;;9.96;84.11;100590.88;1425081;84;21611;-90
2022/04/28 02:57:50;;;;;;;12.43;8.17;;;;;;;9.96;84.25;100589.55;1421558;84;21549;-90
2022/04/28 03:00:16;;;;;;;12.13;9.50;;;;;;;9.96;82.98;100588.23;1400944;88;21442;-89
2022/04/28 03:02:42;;;;;;;11.20;8.10;;;;;;;9.97;83.13;100587.23;1401353;88;21382;-90
2022/04/28 03:05:09;;;;;;;12.43;8.17;;;;;;;9.92;82.98;100592.44;1399409;88;21229;-89
2022/04/28 03:15:29;;;;;;;13.33;8.97;;;;;;;9.99;81.95;100607.77;1406054;84;21780;-92
2022/04/28 03:23:15;;;;;;;13.20;8.67;;;;;;;10.07;81.24;100615.81;1394718;86;21662;31
2022/04/28 03:25:44;;;;;;;12.17;7.77;;;;;;;10.13;80.82;100618.77;1396529;84;23353;31
2022/04/28 03:28:11;;;;;;;11.30;8.37;;;;;;;10.16;81.03;100617.65;1413603;85;21655;-92
2022/04/28 03:30:38;;;;;;;11.73;9.77;;;;;;;10.15;81.25;100622.57;1407340;87;21204;-91
2022/04/28 03:35:36;;;;;;;15.90;8.80;;;;;;;10.18;81.16;100631.55;1403709;84;21668;31
2022/04/28 03:40:40;;;;;;;11.27;8.20;;;;;;;10.16;80.15;100633.52;1435775;83;21673;31
2022/04/28 03:43:13;;;;;;;11.60;7.30;;;;;;;10.17;80.50;100641.30;1418789;84;21533;31
2022/04/28 03:48:10;;;;;;;11.17;7.70;;;;;;;10.16;79.49;100644.09;1405747;85;21636;31
2022/04/28 03:50:43;;;;;;;11.20;7.97;;;;;;;10.17;79.80;100647.08;1398362;85;23347;31
2022/04/28 03:55:40;;;;;;;12.80;8.63;;;;;;;10.16;79.20;100649.39;1412528;84;21700;31
2022/04/28 03:58:10;;;;;;;11.53;9.07;;;;;;;10.20;78.74;100642.83;1404911;84;22599;31
2022/04/28 04:00:41;;;;;;;14.83;9.13;;;;;;;10.20;78.67;100643.33;1401133;85;21474;31
2022/04/28 04:03:17;;;;;;;10.43;8.07;;;;;;;10.23;79.03;100644.36;1420700;85;22329;-88
2022/04/28 04:05:43;;;;;;;13.70;9.10;;;;;;;10.24;78.66;100645.56;1358523;90;21273;-90
2022/04/28 04:08:09;;;;;;;12.53;7.73;;;;;;;10.28;78.57;100641.68;1363513;91;21267;-90
2022/04/28 04:10:36;;;;;;;9.90;7.77;;;;;;;10.25;78.20;100648.55;1360256;90;21399;-89
2022/04/28 04:13:02;;;;;;;13.00;8.27;;;;;;;10.29;78.57;100659.20;1376371;90;22263;-92
2022/04/28 04:15:28;;;;;;;9.23;7.90;;;;;;;10.33;78.60;100656.65;1379706;89;21266;-88
2022/04/28 04:17:55;;;;;;;11.80;7.83;;;;;;;10.35;78.33;100656.49;1379452;89;22330;-89
2022/04/28 04:20:21;;;;;;;11.57;8.63;;;;;;;10.42;78.62;100662.08;1359900;90;21495;-91
2022/04/28 04:22:47;;;;;;;11.87;9.07;;;;;;;10.39;78.25;100656.09;1377196;90;22130;-89
2022/04/28 04:25:14;;;;;;;14.30;8.17;;;;;;;10.40;77.73;100656.91;1351866;90;21425;-89
2022/04/28 04:27:40;;;;;;;13.43;9.33;;;;;;;10.42;77.94;100662.08;1368709;90;21191;-88
2022/04/28 04:32:52;;;;;;;10.80;7.93;;;;;;;10.50;77.49;100659.08;1374025;91;21274;-87
2022/04/28 04:35:18;;;;;;;12.27;8.97;;;;;;;10.45;76.91;100665.27;1374202;89;22168;-85
2022/04/28 04:37:44;;;;;;;12.20;8.43;;;;;;;10.50;77.69;100658.22;1369008;89;21406;-85
2022/04/28 04:40:13;;;;;;;11.03;8.27;;;;;;;10.53;77.45;100666.73;1355342;90;21339;-85
2022/04/28 04:42:39;;;;;;;12.43;8.50;;;;;;;10.52;77.92;100665.53;1356125;90;21452;-86
2022/04/28 04:45:10;;;;;;;8.57;6.77;;;;;;;10.51;77.01;100661.23;1364672;90;22264;-85
2022/04/28 04:47:37;;;;;;;12.53;7.78;;;;;;;10.56;77.50;100657.67;1373550;91;21214;-85
2022/04/28 04:50:05;;;;;;;14.17;9.67;;;;;;;10.58;77.77;100662.31;1371489;89;21391;-85
2022/04/28 04:52:31;;;;;;;12.23;7.17;;;;;;;10.57;76.77;100661.98;1355177;90;21362;-85
2022/04/28 04:54:58;;;;;;;9.20;7.10;;;;;;;10.55;76.83;100665.25;1366687;90;22303;-85
2022/04/28 04:57:24;;;;;;;10.07;7.53;;;;;;;10.57;76.42;100666.78;1353788;91;21251;-84
2022/04/28 04:59:50;;;;;;;9.83;7.57;;;;;;;10.63;76.74;100660.58;1355408;91;21407;-84
2022/04/28 05:02:17;;;;;;;14.67;8.80;;;;;;;10.70;77.12;100670.44;1342858;93;21302;-84
2022/04/28 05:04:43;;;;;;;10.77;7.57;;;;;;;10.75;76.99;100672.66;1378208;88;21371;-83
2022/04/28 05:07:09;;;;;;;11.10;8.17;;;;;;;10.78;77.29;100668.41;1387163;89;21355;-83
2022/04/28 05:09:37;;;;;;;10.80;8.17;;;;;;;10.79;77.33;100670.93;1374199;91;21208;-84
2022/04/28 05:12:05;;;;;;;13.00;8.80;;;;;;;10.79;77.30;100665.63;1360098;90;21324;-84
2022/04/28 05:14:31;;;;;;;11.40;9.30;;;;;;;10.85;76.34;100669.52;1307857;95;21488;-85
2022/04/28 05:16:58;;;;;;;10.87;6.73;;;;;;;10.87;76.23;100668.87;1358181;91;21289;-84
2022/04/28 05:19:27;;;;;;;10.23;7.17;;;;;;;10.92;76.53;100668.45;1377240;89;21441;-85
2022/04/28 05:21:55;;;;;;;14.40;8.47;;;;;;;10.91;76.45;100669.44;1377291;88;21500;-85
2022/04/28 05:24:22;;;;;;;10.33;7.70;;;;;;;10.93;76.01;100670.11;1384225;90;21548;-85
2022/04/28 05:26:48;;;;;;;10.57;7.83;;;;;;;10.95;75.76;100671.64;1361276;90;21471;-85
2022/04/28 05:29:15;;;;;;;8.10;6.20;;;;;;;11.00;76.00;100674.70;1372511;89;22213;-85
2022/04/28 05:31:41;;;;;;;10.63;7.30;;;;;;;10.96;75.26;100672.47;1389099;88;21323;-88
2022/04/28 05:34:07;;;;;;;9.33;7.00;;;;;;;10.95;74.84;100672.13;1396279;87;21316;-88
2022/04/28 05:36:34;;;;;;;9.13;7.13;;;;;;;10.97;75.12;100678.13;1396644;88;21397;-88
2022/04/28 05:39:01;;;;;;;9.10;6.63;;;;;;;10.96;74.99;100674.65;1396659;88;21411;-89
2022/04/28 05:41:28;;;;;;;9.43;7.53;;;;;;;10.98;74.75;100679.29;1396097;87;21302;-89
2022/04/28 05:46:39;;;;;;;11.67;7.73;;;;;;;10.99;75.25;100682.77;1395909;88;21227;-88
2022/04/28 05:49:06;;;;;;;12.20;8.20;;;;;;;11.01;75.27;100682.14;1396952;88;21423;-89
2022/04/28 05:51:32;;;;;;;9.27;7.00;;;;;;;10.96;74.90;100681.73;1396597;88;21456;-88
2022/04/28 05:53:58;;;;;;;11.17;7.70;;;;;;;10.94;75.00;100681.06;1396201;88;21435;-88
2022/04/28 05:56:24;;;;;;;10.23;8.30;;;;;;;10.98;75.43;100683.27;1361988;91;21331;-85
2022/04/28 05:58:51;;;;;;;9.30;6.70;;;;;;;11.02;74.93;100683.83;1377394;89;22276;-86
2022/04/28 06:01:19;;;;;;;11.27;7.17;;;;;;;11.02;74.58;100687.81;1396420;88;21316;-87
2022/04/28 06:03:46;;;;;;;10.63;8.07;;;;;;;11.06;75.05;100687.85;1396087;88;21280;-85
2022/04/28 06:06:13;;;;;;;8.73;7.10;;;;;;;11.13;75.87;100686.28;1392704;88;22447;-85
2022/04/28 06:08:39;;;;;;;12.93;9.37;;;;;;;11.14;75.14;100687.14;1391611;88;21309;-86
2022/04/28 06:11:05;;;;;;;15.77;7.93;;;;;;;11.22;74.65;100692.52;1391411;88;21501;-85
2022/04/28 06:13:32;;;;;;;12.17;8.10;;;;;;;11.29;74.80;100687.83;1391450;88;21390;-85
2022/04/28 06:15:58;;;;;;;10.13;6.83;;;;;;;11.42;75.51;100690.63;1391275;88;21294;-87
2022/04/28 06:18:27;;;;;;;10.53;8.30;;;;;;;11.46;73.71;100679.59;1391638;88;21382;-88
2022/04/28 06:20:54;;;;;;;12.17;8.47;;;;;;;11.56;73.41;100683.52;1391365;88;22218;-85
2022/04/28 06:23:20;;;;;;;10.43;7.40;;;;;;;11.65;74.01;100680.00;1391762;88;21331;-86
2022/04/28 06:25:47;;;;;;;10.37;7.10;;;;;;;11.71;72.99;100683.38;1391534;87;21324;-88
2022/04/28 06:28:16;;;;;;;11.80;7.40;;;;;;;11.78;72.51;100684.10;1391309;88;21420;-87
2022/04/28 06:30:42;;;;;;;11.10;7.30;;;;;;;11.85;73.22;100678.53;1379347;90;21287;-87
2022/04/28 06:33:08;;;;;;;12.20;7.83;;;;;;;11.92;72.94;100679.15;1391554;87;21391;-84
2022/04/28 06:35:35;;;;;;;10.73;7.00;;;;;;;12.05;73.67;100677.94;1391397;87;21376;-89
2022/04/28 06:38:02;;;;;;;11.97;8.07;;;;;;;12.12;73.18;100683.83;1391510;88;21257;-84
2022/04/28 06:40:29;;;;;;;10.77;8.03;;;;;;;12.12;71.73;100679.84;1391729;87;21464;-91
2022/04/28 06:42:55;;;;;;;8.93;7.23;;;;;;;12.20;72.09;100680.42;1392217;88;21309;-90
2022/04/28 06:45:22;;;;;;;8.70;7.20;;;;;;;12.18;71.24;100683.71;1391906;88;22211;-90
2022/04/28 06:47:48;;;;;;;11.33;7.83;;;;;;;12.26;71.69;100686.95;1380293;89;21248;-90
2022/04/28 06:50:14;;;;;;;10.93;7.70;;;;;;;12.33;71.59;100686.66;1392376;88;21331;-91
2022/04/28 06:52:41;;;;;;;13.10;9.17;;;;;;;12.43;72.13;100691.41;1371882;89;22124;-89
2022/04/28 06:55:09;;;;;;;14.57;8.57;;;;;;;12.46;70.25;100695.55;1362325;92;21201;-90
2022/04/28 06:57:37;;;;;;;17.53;9.13;;;;;;;12.52;71.11;100685.17;1354286;90;21265;-91
2022/04/28 07:00:06;;;;;;;12.03;8.87;;;;;;;12.61;70.59;100688.22;1374290;89;22198;-89
2022/04/28 07:02:32;;;;;;;10.33;8.20;;;;;;;12.70;70.58;100694.93;1378051;89;21282;-89
2022/04/28 07:04:58;;;;;;;11.43;8.57;;;;;;;12.76;70.40;100692.98;1362316;89;21324;-89
2022/04/28 07:07:25;;;;;;;11.43;8.47;;;;;;;12.74;69.77;100693.11;1355301;91;21223;-83
2022/04/28 07:09:51;;;;;;;10.70;8.63;;;;;;;12.87;70.42;100694.05;1363068;90;22730;-83
2022/04/28 07:12:17;;;;;;;11.40;8.30;;;;;;;13.05;71.75;100700.63;1370230;89;21340;-82
2022/04/28 07:14:43;;;;;;;10.10;8.60;;;;;;;13.21;69.61;100697.25;1370130;89;21296;-83
2022/04/28 07:17:11;;;;;;;13.97;8.53;;;;;;;13.37;69.30;100700.00;1369932;90;22213;-83
2022/04/28 07:19:37;;;;;;;12.27;8.83;;;;;;;13.47;68.75;100707.38;1370118;90;21436;-83
2022/04/28 07:22:05;;;;;;;15.17;9.37;;;;;;;13.52;68.46;100706.41;1371597;89;21169;-84
2022/04/28 07:24:37;;;;;;;11.33;8.83;;;;;;;13.60;68.43;100710.07;1392620;88;21450;-83
2022/04/28 07:27:03;;;;;;;11.40;8.20;;;;;;;13.68;69.02;100712.27;1392538;88;21353;-81
2022/04/28 07:29:30;;;;;;;11.33;9.20;;;;;;;13.70;69.14;100706.80;1392800;88;22688;-83
2022/04/28 07:32:07;;;;;;;11.10;8.03;;;;;;;13.78;69.29;100718.77;1392758;88;21301;-83
2022/04/28 07:34:33;;;;;;;13.53;8.30;;;;;;;13.86;68.60;100716.14;1392372;88;21361;-82
2022/04/28 07:36:59;;;;;;;13.73;9.20;;;;;;;13.99;68.08;100721.02;1385514;88;22241;-82
2022/04/28 07:39:25;;;;;;;13.00;8.13;;;;;;;14.01;66.74;100724.32;1376124;91;21451;-83
2022/04/28 07:41:51;;;;;;;11.50;8.93;;;;;;;14.06;66.91;100722.02;1376524;89;21429;-83
2022/04/28 07:44:17;;;;;;;15.23;8.93;;;;;;;14.20;67.09;100716.55;1376906;89;21554;-83
2022/04/28 07:46:43;;;;;;;13.63;7.97;;;;;;;14.29;67.42;100724.05;1376410;89;22323;-83
2022/04/28 07:49:09;;;;;;;13.60;10.00;;;;;;;14.33;66.85;100720.09;1376597;89;21462;-83
2022/04/28 07:51:35;;;;;;;14.37;8.90;;;;;;;14.37;66.73;100720.91;1376403;89;21370;-83
2022/04/28 07:54:04;;;;;;;9.67;8.30;;;;;;;14.50;66.64;100719.57;1377045;89;21450;-85
2022/04/28 07:56:30;;;;;;;12.73;8.00;;;;;;;14.41;64.50;100724.92;1377271;89;21288;-86
2022/04/28 07:58:56;;;;;;;12.97;8.90;;;;;;;14.45;64.43;100724.91;1377530;89;21473;-86
2022/04/28 08:01:24;;;;;;;12.60;8.27;;;;;;;14.59;65.51;100726.62;1377135;89;21310;-85
2022/04/28 08:03:50;;;;;;;10.97;9.73;;;;;;;14.67;64.75;100727.92;1377053;89;21399;-86
2022/04/28 08:06:16;;;;;;;10.43;8.83;;;;;;;14.84;65.67;100726.91;1379175;89;21532;-86
2022/04/28 08:08:42;;;;;;;10.33;8.33;;;;;;;15.04;63.77;100725.23;1378368;89;22161;-86
2022/04/28 08:11:09;;;;;;;8.63;7.00;;;;;;;15.09;62.39;100726.39;1378239;90;21251;-86
2022/04/28 08:13:36;;;;;;;11.97;7.37;;;;;;;15.02;62.00;100725.92;1378669;89;21325;-86
2022/04/28 08:16:03;;;;;;;14.60;7.87;;;;;;;15.06;62.50;100729.39;1379271;89;22079;-86
2022/04/28 08:18:30;;;;;;;8.83;7.10;;;;;;;15.15;61.76;100734.20;1378326;89;21332;-85
2022/04/28 08:20:56;;;;;;;10.47;8.07;;;;;;;14.99;60.96;100732.89;1377968;90;21397;-85
2022/04/28 08:23:22;;;;;;;7.07;6.33;;;;;;;15.14;61.67;100737.06;1379366;89;21452;-85
2022/04/28 08:25:48;;;;;;;10.80;7.27;;;;;;;15.07;61.60;100732.89;1362262;90;21399;-85
2022/04/28 08:28:14;;;;;;;9.57;7.83;;;;;;;15.08;61.41;100736.73;1377033;90;22300;-84
2022/04/28 08:30:41;;;;;;;12.27;6.83;;;;;;;15.26;62.50;100733.85;1377887;89;21391;-84
2022/04/28 08:33:07;;;;;;;11.00;6.17;;;;;;;15.42;61.41;100736.13;1378330;89;21302;-83
2022/04/28 08:35:34;;;;;;;7.33;6.47;;;;;;;15.43;60.45;100743.15;1378494;89;21318;-83
2022/04/28 08:38:00;;;;;;;10.63;7.17;;;;;;;15.56;61.46;100743.42;1378713;89;21295;-86
2022/04/28 08:40:26;;;;;;;8.33;7.10;;;;;;;15.59;60.74;100739.07;1378627;89;21354;-86
2022/04/28 08:42:55;;;;;;;8.30;7.07;;;;;;;15.68;59.50;100742.09;1377332;89;21481;-86
2022/04/28 08:45:32;;;;;;;8.10;7.30;;;;;;;15.86;61.09;100732.49;1342501;93;21289;-86
2022/04/28 08:48:00;;;;;;;8.13;6.90;;;;;;;16.06;60.42;100746.23;1345915;92;21408;-87
2022/04/28 08:50:26;;;;;;;7.80;6.60;;;;;;;16.26;60.89;100747.12;1346264;92;21401;-85
2022/04/28 08:52:55;;;;;;;9.50;6.03;;;;;;;16.44;59.69;100747.66;1345778;92;22176;-86
2022/04/28 08:55:21;;;;;;;5.73;4.97;;;;;;;16.50;57.51;100741.59;1334582;93;22249;-86
2022/04/28 08:57:47;;;;;;;6.07;5.47;;;;;;;16.57;57.82;100743.04;1345791;92;21319;-86
2022/04/28 09:00:15;;;;;;;8.03;5.47;;;;;;;16.61;57.93;100740.36;1346603;92;21525;-87
2022/04/28 09:02:41;;;;;;;5.70;5.17;;;;;;;16.51;55.69;100737.91;1334707;93;21530;-86
2022/04/28 09:05:10;;;;;;;8.57;6.27;;;;;;;16.63;55.99;100743.66;1334913;93;21363;-87
2022/04/28 09:07:40;;;;;;;11.90;5.80;;;;;;;16.63;56.28;100733.83;1359835;91;21428;-87
2022/04/28 09:10:30;;;;;;;9.53;6.67;;;;;;;16.52;55.65;100739.59;1359417;90;22397;-87
2022/04/28 09:15:51;;;;;;;;;;;;;;;16.58;57.11;100740.72;1307736;94;21465;-87
2022/04/28 09:18:20;;;;;;;6.95;6.17;;;;;;;16.54;56.29;100746.90;1304992;95;20888;-86
2022/04/28 09:20:48;;;;;;;8.03;5.17;;;;;;;16.47;56.76;100746.79;1305163;95;21580;-86
2022/04/28 09:23:15;;;;;;;8.80;5.13;;;;;;;16.42;56.85;100749.67;1291190;97;21539;-86
2022/04/28 09:25:42;;;;;;;5.60;4.53;;;;;;;16.36;56.50;100750.38;1305765;95;21474;-84
2022/04/28 09:28:10;;;;;;;5.43;4.67;;;;;;;16.17;55.09;100741.84;1304976;95;21281;-83
2022/04/28 09:30:49;;;;;;;6.63;5.20;;;;;;;16.12;56.75;100752.20;1305244;95;21559;-83
2022/04/28 09:33:22;;;;;;;14.77;6.53;;;;;;;16.00;56.63;100756.28;1304629;95;21576;-82
2022/04/28 09:35:54;;;;;;;6.50;4.60;;;;;;;15.93;57.16;100757.97;1305171;95;21436;-82
2022/04/28 09:38:20;;;;;;;7.13;5.67;;;;;;;15.85;57.05;100756.67;1304733;95;21318;-83
2022/04/28 09:43:35;;;;;;;10.07;6.20;;;;;;;15.83;58.55;100760.87;1304975;95;21324;-83
2022/04/28 09:46:04;;;;;;;7.43;6.50;;;;;;;15.86;58.80;100758.36;1290840;97;22463;-83
2022/04/28 09:48:33;;;;;;;6.97;5.83;;;;;;;15.84;58.33;100775.04;1308030;95;21280;-82
2022/04/28 09:51:05;;;;;;;5.17;4.50;;;;;;;15.84;58.03;100772.37;1341895;92;21368;-83
2022/04/28 09:53:35;;;;;;;7.57;5.13;;;;;;;15.89;58.10;100776.19;1359469;91;22845;-83
2022/04/28 09:56:06;;;;;;;4.53;4.13;;;;;;;15.95;58.20;100775.98;1359449;90;21452;-84
2022/04/28 09:58:33;;;;;;;4.83;3.43;;;;;;;16.01;58.37;100773.95;1342669;92;21355;-83
2022/04/28 10:01:03;;;;;;;4.37;3.87;;;;;;;16.06;58.09;100781.45;1359495;90;21422;-83
2022/04/28 10:03:33;;;;;;;4.40;3.62;;;;;;;16.08;58.02;100782.09;1359767;91;21311;-84
2022/04/28 10:06:05;;;;;;;6.67;3.47;;;;;;;16.08;57.71;100784.25;1358752;90;21496;-83
2022/04/28 10:08:36;;;;;;;7.43;3.87;;;;;;;16.06;57.10;100786.28;1350275;91;21304;-83
2022/04/28 10:11:09;;;;;;;4.30;3.83;;;;;;;16.12;57.79;100788.77;1350151;91;21481;-84
2022/04/28 10:13:35;;;;;;;4.37;3.97;;;;;;;16.14;56.81;100785.39;1337509;92;21260;-83
2022/04/28 10:16:06;;;;;;;4.77;4.27;;;;;;;16.18;56.96;100782.20;1337638;93;21444;-82
2022/04/28 10:18:38;;;;;;;5.57;4.30;;;;;;;16.26;56.90;100784.52;1349628;91;21356;-83
2022/04/28 10:21:07;;;;;;;4.77;4.23;;;;;;;16.30;56.93;100783.97;1349518;91;22265;-83
2022/04/28 10:35:06;;;;;;;4.70;4.17;;;;;;;16.17;56.08;100787.70;1349534;91;22227;-84
2022/04/28 10:37:39;;;;;;;7.67;6.40;;;;;;;16.13;56.60;100787.74;1349881;91;21326;-83
2022/04/28 10:40:08;;;;;;;5.80;4.30;;;;;;;16.08;55.98;100790.09;1337389;92;21363;-84
2022/04/28 10:42:57;;;;;;;4.80;4.13;;;;;;;16.06;56.58;100798.30;1349597;91;22221;-84
2022/04/28 10:45:25;;;;;;;6.37;4.30;;;;;;;15.98;55.54;100795.66;1348385;91;21514;-83
2022/04/28 10:48:31;;;;;;;4.80;3.83;;;;;;;15.90;55.08;100793.85;1337653;92;21282;-83
2022/04/28 10:51:23;;;;;;;5.33;4.40;;;;;;;15.90;55.55;100797.85;1349473;91;21304;-84
2022/04/28 10:54:09;;;;;;;4.77;3.93;;;;;;;15.84;55.23;100809.23;1318908;94;21577;-83
2022/04/28 10:56:48;;;;;;;6.47;4.83;;;;;;;15.79;55.58;100815.10;1318869;94;21560;-83
2022/04/28 10:59:34;;;;;;;5.73;4.27;;;;;;;15.72;54.63;100813.28;1338152;92;22301;-84
2022/04/28 11:02:40;;;;;;;8.67;5.03;;;;;;;15.69;54.63;100814.45;1326724;92;21482;-83
2022/04/28 11:05:26;;;;;;;7.50;4.47;;;;;;;15.67;54.51;100820.42;1348684;91;21385;-83
2022/04/28 11:07:53;;;;;;;4.80;4.27;;;;;;;15.62;54.36;100824.09;1353146;91;21542;-82
2022/04/28 11:10:22;;;;;;;5.43;4.00;;;;;;;15.62;54.03;100821.43;1360361;89;21259;-82
2022/04/28 11:12:50;;;;;;;9.27;5.00;;;;;;;15.62;54.62;100824.09;1359227;90;21324;-83
2022/04/28 11:15:17;;;;;;;7.73;5.73;;;;;;;15.61;54.04;100830.95;1378238;89;21309;-83
2022/04/28 11:17:44;;;;;;;8.80;5.07;;;;;;;15.56;54.07;100832.31;1378881;89;21282;-84
2022/04/28 11:20:18;;;;;;;10.07;4.90;;;;;;;15.60;54.38;100832.80;1378028;89;21397;-84
2022/04/28 11:22:47;;;;;;;6.63;4.43;;;;;;;15.64;54.75;100831.95;1378426;89;21441;-83
2022/04/28 11:25:16;;;;;;;4.77;4.27;;;;;;;15.63;53.45;100831.12;1371570;90;21375;-83
2022/04/28 11:27:45;;;;;;;5.03;4.03;;;;;;;15.69;54.30;100833.13;1373815;89;22263;-82
2022/04/28 11:30:16;;;;;;;5.80;4.50;;;;;;;15.67;53.50;100835.09;1370086;90;21438;-84
2022/04/28 11:32:51;;;;;;;6.13;5.07;;;;;;;15.72;54.35;100836.79;1365207;91;22310;-83
2022/04/28 11:35:19;;;;;;;6.03;4.37;;;;;;;15.68;53.64;100841.29;1366987;90;21443;-83
2022/04/28 11:37:50;;;;;;;8.73;5.40;;;;;;;15.71;54.05;100836.98;1351168;92;21348;-83
2022/04/28 11:40:16;;;;;;;5.10;4.37;;;;;;;15.71;54.60;100843.65;1365979;90;21338;-84
2022/04/28 11:42:43;;;;;;;14.73;4.93;;;;;;;15.69;54.67;100847.80;1365065;90;21280;-83
2022/04/28 11:45:10;;;;;;;5.57;4.73;;;;;;;15.71;55.01;100848.48;1364738;90;21407;-82
2022/04/28 11:47:45;;;;;;;7.77;4.87;;;;;;;15.68;54.16;100853.30;1365337;90;21303;-81
2022/04/28 11:50:22;;;;;;;8.37;4.60;;;;;;;15.66;53.95;100849.45;1357049;90;22244;-83
2022/04/28 11:53:01;;;;;;;8.33;4.77;;;;;;;15.70;54.68;100851.30;1378023;92;22784;-83
2022/04/28 11:55:35;;;;;;;7.07;4.47;;;;;;;15.77;55.21;100847.79;1403239;87;21300;-83
2022/04/28 11:57:57;;;;;;;8.87;5.27;;;;;;;15.83;56.12;100852.12;1384621;87;22260;-84
2022/04/28 12:00:27;;;;;;;4.53;4.10;;;;;;;15.86;55.57;100857.11;1370060;91;21301;-84
2022/04/28 12:02:54;;;;;;;;;;;;;;;15.92;56.35;100857.75;1391305;88;22674;-81
2022/04/28 12:05:23;;;;;;;4.60;3.97;;;;;;;15.92;59.42;100855.09;1383649;88;20258;-84
2022/04/28 12:07:51;;;;;;;7.33;4.63;;;;;;;15.90;58.67;100857.91;1386977;88;21342;-82
2022/04/28 12:15:59;;;;;;;4.83;4.30;;;;;;;15.97;60.46;100863.41;1385763;88;21221;-83
2022/04/28 12:21:24;;;;;;;5.43;4.33;;;;;;;16.03;60.25;100860.56;1343693;91;22261;-83
2022/04/28 12:23:58;;;;;;;4.50;4.10;;;;;;;15.98;58.83;100859.73;1350285;91;21445;-84
2022/04/28 12:26:26;;;;;;;5.50;4.73;;;;;;;15.95;58.46;100860.91;1331032;93;21364;-83
2022/04/28 12:28:54;;;;;;;6.30;4.70;;;;;;;15.98;58.79;100864.56;1346866;90;21282;-84
2022/04/28 12:31:30;;;;;;;6.43;5.53;;;;;;;16.01;58.44;100864.72;1341210;92;22233;-83
2022/04/28 12:33:58;;;;;;;6.93;5.07;;;;;;;16.03;57.67;100865.39;1311805;97;21376;-83
2022/04/28 12:36:25;;;;;;;6.97;4.37;;;;;;;16.09;58.45;100867.37;1341232;92;21509;-84
2022/04/28 12:38:53;;;;;;;5.87;4.50;;;;;;;16.07;57.49;100866.70;1359612;91;21274;-83
2022/04/28 12:41:27;;;;;;;4.60;4.17;;;;;;;16.06;59.02;100870.38;1379373;89;21271;-83
2022/04/28 12:43:59;;;;;;;4.10;3.63;;;;;;;16.02;60.03;100870.38;1362727;90;22193;-84
2022/04/28 12:46:37;;;;;;;5.70;4.17;;;;;;;15.99;61.35;100861.38;1384262;89;21524;-83
2022/04/28 12:49:07;;;;;;;6.70;4.27;;;;;;;15.98;60.92;100858.39;1374322;89;21238;-84